Time;durP1;ratioP1;P1;durP2;ratioP2;P2;SDS_P1;SDS_P2;PMS_P1;PMS_P2;Temp;Humidity;BMP_temperature;BMP_pressure;BME280_temperature;BME280_humidity;BME280_pressure;Samples;Min_cycle;Max_cycle;Signal;HPM_P1;HPM_P2
2021/01/07 00:01:19;;;;;;;19.10;16.98;;;;;;;;;;5014217;28;20854;-76
2021/01/07 00:03:45;;;;;;;19.42;17.17;;;;;;;;;;5014633;28;20387;-76
2021/01/07 00:06:12;;;;;;;20.57;18.37;;;;;;;;;;5013443;28;20862;-76
2021/01/07 00:08:38;;;;;;;18.37;16.47;;;;;;;;;;5014958;28;20494;-76
2021/01/07 00:11:07;;;;;;;18.50;16.17;;;;;;;;;;5014731;28;20363;-75
2021/01/07 00:13:34;;;;;;;18.15;16.20;;;;;;;;;;5014663;28;20889;-76
2021/01/07 00:16:00;;;;;;;18.27;15.90;;;;;;;;;;5013246;28;20383;-76
2021/01/07 00:18:26;;;;;;;16.75;15.00;;;;;;;;;;4996853;28;20379;-75
2021/01/07 00:20:52;;;;;;;18.00;16.03;;;;;;;;;;5014594;28;20413;-75
2021/01/07 00:23:18;;;;;;;17.65;15.80;;;;;;;;;;5014551;28;20410;-75
2021/01/07 00:25:48;;;;;;;18.67;15.60;;;;;;;;;;5014619;28;20392;-75
2021/01/07 00:28:14;;;;;;;16.65;14.95;;;;;;;;;;5012943;28;20466;-75
2021/01/07 00:30:40;;;;;;;16.80;15.10;;;;;;;;;;5014259;28;20403;-76
2021/01/07 00:33:06;;;;;;;17.48;15.55;;;;;;;;;;5014193;28;20387;-74
2021/01/07 00:35:32;;;;;;;16.67;14.70;;;;;;;;;;5012983;28;20893;-76
2021/01/07 00:37:59;;;;;;;18.27;16.08;;;;;;;;;;5014658;28;20380;-76
2021/01/07 00:40:25;;;;;;;16.65;14.95;;;;;;;;;;5013764;28;20367;-76
2021/01/07 00:42:51;;;;;;;17.20;15.40;;;;;;;;;;5013931;28;20375;-75
2021/01/07 00:45:17;;;;;;;17.17;15.40;;;;;;;;;;5013888;28;20359;-76
2021/01/07 00:47:43;;;;;;;16.67;15.00;;;;;;;;;;5013895;28;20386;-76
2021/01/07 00:50:09;;;;;;;16.83;15.02;;;;;;;;;;5014021;28;20432;-76
2021/01/07 00:52:35;;;;;;;17.30;14.65;;;;;;;;;;5012600;28;21170;-76
2021/01/07 00:55:01;;;;;;;15.73;13.88;;;;;;;;;;5014031;28;20426;-77
2021/01/07 00:57:27;;;;;;;15.60;14.00;;;;;;;;;;5014039;28;20368;-75
2021/01/07 00:59:53;;;;;;;16.75;14.63;;;;;;;;;;5015313;28;20375;-77
2021/01/07 01:02:19;;;;;;;16.77;14.90;;;;;;;;;;5014285;28;20763;-75
2021/01/07 01:04:45;;;;;;;17.10;14.85;;;;;;;;;;5012613;28;20406;-75
2021/01/07 01:07:11;;;;;;;15.43;13.82;;;;;;;;;;5013724;28;20860;-75
2021/01/07 01:09:37;;;;;;;15.95;14.25;;;;;;;;;;5013428;28;20403;-75
2021/01/07 01:12:03;;;;;;;15.98;14.10;;;;;;;;;;5011064;28;20379;-77
2021/01/07 01:14:29;;;;;;;17.17;15.20;;;;;;;;;;5013667;28;20399;-75
2021/01/07 01:16:55;;;;;;;18.70;15.30;;;;;;;;;;5012074;28;20399;-75
2021/01/07 01:19:21;;;;;;;15.93;14.23;;;;;;;;;;5013273;28;20444;-76
2021/01/07 01:21:53;;;;;;;17.15;15.32;;;;;;;;;;5012163;28;20426;-75
2021/01/07 01:24:20;;;;;;;15.50;13.90;;;;;;;;;;5012250;28;20869;-75
2021/01/07 01:26:46;;;;;;;16.13;14.43;;;;;;;;;;5012058;28;20407;-75
2021/01/07 01:29:12;;;;;;;14.70;13.20;;;;;;;;;;5011514;28;20486;-76
2021/01/07 01:31:39;;;;;;;15.13;13.63;;;;;;;;;;5013607;28;20451;-75
2021/01/07 01:34:06;;;;;;;14.73;13.20;;;;;;;;;;5013543;28;20367;-76
2021/01/07 01:36:32;;;;;;;13.27;11.95;;;;;;;;;;5013658;28;20375;-75
2021/01/07 01:38:58;;;;;;;13.20;11.90;;;;;;;;;;5013102;28;20363;-75
2021/01/07 01:41:24;;;;;;;13.35;12.05;;;;;;;;;;5013057;28;20367;-75
2021/01/07 01:43:50;;;;;;;11.90;10.80;;;;;;;;;;5011744;28;20374;-76
2021/01/07 01:46:16;;;;;;;12.60;11.40;;;;;;;;;;5013114;28;20367;-75
2021/01/07 01:48:42;;;;;;;12.35;11.13;;;;;;;;;;5013023;28;20849;-76
2021/01/07 01:51:08;;;;;;;11.82;10.68;;;;;;;;;;5011439;28;20371;-76
2021/01/07 01:53:35;;;;;;;11.70;10.60;;;;;;;;;;5013012;28;20454;-75
2021/01/07 01:56:02;;;;;;;11.82;10.68;;;;;;;;;;5011418;28;20462;-75
2021/01/07 01:58:28;;;;;;;12.65;11.45;;;;;;;;;;5011317;28;20367;-76
2021/01/07 02:00:54;;;;;;;11.57;10.47;;;;;;;;;;5011032;28;20374;-75
2021/01/07 02:03:20;;;;;;;11.35;10.32;;;;;;;;;;5013127;28;20372;-76
2021/01/07 02:05:47;;;;;;;10.98;9.98;;;;;;;;;;5012773;28;20363;-75
2021/01/07 02:08:14;;;;;;;10.97;9.87;;;;;;;;;;5012531;28;20376;-77
2021/01/07 02:10:40;;;;;;;11.18;10.07;;;;;;;;;;5012237;28;20391;-76
2021/01/07 02:13:07;;;;;;;10.40;9.40;;;;;;;;;;5012742;28;20918;-76
2021/01/07 02:15:39;;;;;;;10.60;9.60;;;;;;;;;;5011169;28;20382;-78
2021/01/07 02:18:05;;;;;;;11.15;10.05;;;;;;;;;;5012540;28;20363;-75
2021/01/07 02:20:33;;;;;;;11.45;10.43;;;;;;;;;;5010907;28;20397;-76
2021/01/07 02:22:59;;;;;;;11.32;10.32;;;;;;;;;;5010566;28;20466;-75
2021/01/07 02:25:25;;;;;;;10.52;9.52;;;;;;;;;;5010721;28;20454;-75
2021/01/07 02:27:51;;;;;;;11.27;10.20;;;;;;;;;;5010566;28;20963;-78
2021/01/07 02:30:18;;;;;;;10.95;9.95;;;;;;;;;;5010741;28;20391;-75
2021/01/07 02:32:45;;;;;;;10.23;9.30;;;;;;;;;;5012104;28;20765;-76
2021/01/07 02:35:11;;;;;;;9.85;9.00;;;;;;;;;;5012074;28;20371;-77
2021/01/07 02:37:38;;;;;;;10.20;9.30;;;;;;;;;;5011912;28;20753;-75
2021/01/07 02:40:08;;;;;;;11.30;10.30;;;;;;;;;;5012136;28;20371;-76
2021/01/07 02:42:34;;;;;;;10.48;9.57;;;;;;;;;;5010669;28;20462;-76
2021/01/07 02:45:00;;;;;;;10.20;9.20;;;;;;;;;;5012102;28;20419;-76
2021/01/07 02:47:26;;;;;;;10.00;9.10;;;;;;;;;;5011763;28;20438;-75
2021/01/07 02:49:52;;;;;;;10.38;9.48;;;;;;;;;;5011778;28;20889;-76
2021/01/07 02:52:18;;;;;;;10.80;9.70;;;;;;;;;;5011948;28;20359;-77
2021/01/07 02:54:44;;;;;;;10.93;9.82;;;;;;;;;;5011478;28;20390;-77
2021/01/07 02:57:10;;;;;;;11.40;10.30;;;;;;;;;;5010597;28;20850;-77
2021/01/07 02:59:36;;;;;;;10.77;9.77;;;;;;;;;;5011693;28;20415;-75
2021/01/07 03:02:02;;;;;;;10.93;9.93;;;;;;;;;;5011457;28;20359;-76
2021/01/07 03:04:28;;;;;;;11.30;10.20;;;;;;;;;;5011416;28;20359;-75
2021/01/07 03:06:54;;;;;;;11.03;10.03;;;;;;;;;;5010044;28;20375;-75
2021/01/07 03:09:20;;;;;;;11.88;10.77;;;;;;;;;;5011061;28;20398;-75
2021/01/07 03:11:46;;;;;;;11.65;10.60;;;;;;;;;;5011295;28;20406;-74
2021/01/07 03:14:12;;;;;;;11.60;10.55;;;;;;;;;;5011714;28;20359;-75
2021/01/07 03:16:38;;;;;;;11.80;10.70;;;;;;;;;;5011464;28;20457;-75
2021/01/07 03:19:04;;;;;;;10.90;9.90;;;;;;;;;;5011110;28;20846;-75
2021/01/07 03:21:30;;;;;;;11.15;10.15;;;;;;;;;;5009597;28;20418;-76
2021/01/07 03:23:55;;;;;;;12.18;10.98;;;;;;;;;;5009665;28;20379;-75
2021/01/07 03:26:22;;;;;;;11.85;10.75;;;;;;;;;;5011337;28;20371;-76
2021/01/07 03:28:48;;;;;;;11.37;10.27;;;;;;;;;;5009699;28;20415;-75
2021/01/07 03:31:14;;;;;;;10.88;9.88;;;;;;;;;;5011040;28;20363;-75
2021/01/07 03:33:40;;;;;;;11.18;10.13;;;;;;;;;;5011279;28;20367;-77
2021/01/07 03:36:06;;;;;;;11.15;10.10;;;;;;;;;;5010340;28;20373;-76
2021/01/07 03:38:32;;;;;;;11.90;10.80;;;;;;;;;;5009892;28;20781;-75
2021/01/07 03:40:58;;;;;;;11.60;10.50;;;;;;;;;;5010686;28;20371;-75
2021/01/07 03:43:24;;;;;;;11.98;10.77;;;;;;;;;;5009964;28;20376;-76
2021/01/07 03:45:50;;;;;;;11.85;10.65;;;;;;;;;;5011555;28;20880;-75
2021/01/07 03:48:15;;;;;;;11.57;10.48;;;;;;;;;;5011038;28;20872;-76
2021/01/07 03:50:41;;;;;;;11.02;9.93;;;;;;;;;;5009309;28;20456;-76
2021/01/07 03:53:07;;;;;;;12.00;10.80;;;;;;;;;;5011318;28;20391;-76
2021/01/07 03:55:33;;;;;;;12.53;11.13;;;;;;;;;;5011082;28;20367;-76
2021/01/07 03:57:59;;;;;;;12.95;10.80;;;;;;;;;;5009826;28;20374;-75
2021/01/07 04:00:25;;;;;;;12.75;11.45;;;;;;;;;;5010969;28;20737;-75
2021/01/07 04:02:51;;;;;;;12.63;11.32;;;;;;;;;;5009604;28;20372;-75
2021/01/07 04:05:17;;;;;;;12.30;11.00;;;;;;;;;;5010847;28;20778;-75
2021/01/07 04:07:43;;;;;;;13.73;11.93;;;;;;;;;;5010797;28;20356;-75
2021/01/07 04:10:09;;;;;;;13.95;12.18;;;;;;;;;;5010606;28;20415;-75
2021/01/07 04:12:35;;;;;;;13.63;12.07;;;;;;;;;;5009503;28;20428;-75
2021/01/07 04:15:03;;;;;;;15.57;12.87;;;;;;;;;;5009717;28;21013;-75
2021/01/07 04:17:29;;;;;;;14.88;13.25;;;;;;;;;;5009383;28;20382;-76
2021/01/07 04:19:55;;;;;;;14.48;12.98;;;;;;;;;;5010645;28;20367;-78
2021/01/07 04:22:21;;;;;;;15.40;13.80;;;;;;;;;;5009265;28;20376;-75
2021/01/07 04:24:47;;;;;;;14.60;13.00;;;;;;;;;;5010807;28;20442;-76
2021/01/07 04:27:13;;;;;;;16.17;13.90;;;;;;;;;;5009255;28;20429;-75
2021/01/07 04:29:38;;;;;;;15.65;13.95;;;;;;;;;;5008947;28;20441;-75
2021/01/07 04:32:05;;;;;;;15.63;13.90;;;;;;;;;;5010475;28;20895;-75
2021/01/07 04:34:31;;;;;;;15.48;13.88;;;;;;;;;;5010407;28;20359;-75
2021/01/07 04:36:56;;;;;;;18.13;15.33;;;;;;;;;;5010996;28;20375;-76
2021/01/07 04:39:22;;;;;;;16.42;14.63;;;;;;;;;;5010174;28;20372;-75
2021/01/07 04:41:48;;;;;;;16.00;14.27;;;;;;;;;;5010636;28;20364;-75
2021/01/07 04:44:15;;;;;;;16.17;14.38;;;;;;;;;;5009131;28;20474;-75
2021/01/07 04:46:41;;;;;;;16.63;14.63;;;;;;;;;;5012494;28;20386;-75
2021/01/07 04:49:07;;;;;;;17.15;14.77;;;;;;;;;;5014052;28;20885;-77
2021/01/07 04:51:33;;;;;;;16.70;14.90;;;;;;;;;;5012588;28;20387;-75
2021/01/07 04:54:00;;;;;;;16.15;14.18;;;;;;;;;;5013936;28;20367;-76
2021/01/07 04:56:26;;;;;;;17.60;15.27;;;;;;;;;;5012533;28;20443;-75
2021/01/07 04:58:52;;;;;;;16.60;14.80;;;;;;;;;;5013816;28;20406;-75
2021/01/07 05:01:18;;;;;;;17.73;15.57;;;;;;;;;;5013326;28;20405;-76
2021/01/07 05:03:45;;;;;;;17.52;15.63;;;;;;;;;;5012204;28;20371;-75
2021/01/07 05:06:11;;;;;;;16.88;14.48;;;;;;;;;;5013756;28;20447;-75
2021/01/07 05:08:37;;;;;;;16.55;14.63;;;;;;;;;;5012396;28;20372;-75
2021/01/07 05:11:03;;;;;;;17.88;15.43;;;;;;;;;;5013126;28;20403;-75
2021/01/07 05:13:29;;;;;;;17.08;15.15;;;;;;;;;;5012049;28;20414;-75
2021/01/07 05:15:55;;;;;;;18.40;16.40;;;;;;;;;;5012319;28;20371;-75
2021/01/07 05:18:21;;;;;;;18.33;16.37;;;;;;;;;;5011870;28;20359;-75
2021/01/07 05:20:47;;;;;;;18.48;15.95;;;;;;;;;;5013350;28;20368;-76
2021/01/07 05:23:13;;;;;;;18.90;16.15;;;;;;;;;;5013710;28;20424;-75
2021/01/07 05:25:42;;;;;;;18.67;15.68;;;;;;;;;;5011924;28;20704;-75
2021/01/07 05:28:09;;;;;;;20.42;16.23;;;;;;;;;;5011687;28;20394;-76
2021/01/07 05:30:35;;;;;;;19.48;16.88;;;;;;;;;;5012899;28;20395;-76
2021/01/07 05:33:06;;;;;;;20.00;16.60;;;;;;;;;;5011465;28;20383;-76
2021/01/07 05:35:32;;;;;;;19.50;16.58;;;;;;;;;;5013297;28;20509;-74
2021/01/07 05:37:59;;;;;;;17.83;15.55;;;;;;;;;;5012954;28;20389;-77
2021/01/07 05:40:25;;;;;;;18.50;16.50;;;;;;;;;;5012769;28;20455;-75
2021/01/07 05:42:54;;;;;;;19.63;16.95;;;;;;;;;;5011611;28;20434;-76
2021/01/07 05:45:20;;;;;;;18.67;16.67;;;;;;;;;;5012888;28;20378;-75
2021/01/07 05:47:49;;;;;;;17.80;15.85;;;;;;;;;;5013078;28;20367;-76
2021/01/07 05:50:14;;;;;;;18.83;16.15;;;;;;;;;;5010604;28;20449;-78
2021/01/07 05:52:42;;;;;;;19.23;16.38;;;;;;;;;;5010558;28;20380;-75
2021/01/07 05:55:08;;;;;;;17.88;15.98;;;;;;;;;;5012530;28;20375;-78
2021/01/07 05:57:37;;;;;;;20.00;17.17;;;;;;;;;;5010055;28;20396;-78
2021/01/07 06:00:04;;;;;;;19.50;17.35;;;;;;;;;;5010568;28;20391;-78
2021/01/07 06:02:33;;;;;;;18.58;16.58;;;;;;;;;;5012235;28;20390;-76
2021/01/07 06:05:01;;;;;;;18.80;16.30;;;;;;;;;;5012336;28;20414;-75
2021/01/07 06:07:28;;;;;;;18.90;16.10;;;;;;;;;;5012742;28;20425;-76
2021/01/07 06:09:55;;;;;;;18.87;16.33;;;;;;;;;;5001732;28;20810;-77
2021/01/07 06:12:21;;;;;;;20.02;16.40;;;;;;;;;;4992499;28;20376;-77
2021/01/07 06:14:47;;;;;;;16.88;15.07;;;;;;;;;;4992802;28;20412;-76
2021/01/07 06:17:14;;;;;;;18.33;16.38;;;;;;;;;;4990852;28;20441;-77
2021/01/07 06:19:41;;;;;;;18.48;16.48;;;;;;;;;;4992497;28;20372;-77
2021/01/07 06:22:10;;;;;;;17.00;15.20;;;;;;;;;;5002944;28;20445;-74
2021/01/07 06:24:37;;;;;;;19.13;16.63;;;;;;;;;;5012435;28;20374;-76
2021/01/07 06:27:18;;;;;;;19.48;17.38;;;;;;;;;;5012368;28;20411;-77
2021/01/07 06:29:44;;;;;;;19.13;16.80;;;;;;;;;;5011422;28;20959;-77
2021/01/07 06:32:10;;;;;;;18.93;16.90;;;;;;;;;;5011736;28;20403;-79
2021/01/07 06:34:39;;;;;;;18.98;16.58;;;;;;;;;;5012139;28;20366;-78
2021/01/07 06:37:06;;;;;;;17.92;16.02;;;;;;;;;;5012150;28;20367;-78
2021/01/07 06:39:42;;;;;;;19.35;16.40;;;;;;;;;;5011684;28;20368;-77
2021/01/07 06:42:08;;;;;;;16.98;15.13;;;;;;;;;;5011921;28;20402;-76
2021/01/07 06:44:35;;;;;;;19.42;17.33;;;;;;;;;;5012047;28;20458;-78
2021/01/07 06:47:01;;;;;;;18.38;16.35;;;;;;;;;;5012007;28;20722;-79
2021/01/07 06:49:27;;;;;;;18.58;16.65;;;;;;;;;;5011673;28;20417;-78
2021/01/07 06:51:57;;;;;;;20.33;17.75;;;;;;;;;;5011743;28;20433;-77
2021/01/07 06:54:24;;;;;;;20.73;17.20;;;;;;;;;;5011885;28;20359;-77
2021/01/07 06:56:53;;;;;;;20.10;17.92;;;;;;;;;;5011851;28;20383;-76
2021/01/07 06:59:20;;;;;;;20.27;17.65;;;;;;;;;;5011708;28;20904;-78
2021/01/07 07:01:53;;;;;;;21.20;18.17;;;;;;;;;;5011630;28;20796;-77
2021/01/07 07:04:29;;;;;;;21.55;18.13;;;;;;;;;;5011371;28;20472;-76
2021/01/07 07:07:22;;;;;;;21.23;17.95;;;;;;;;;;5011721;28;20375;-75
2021/01/07 07:09:52;;;;;;;21.00;18.48;;;;;;;;;;5010193;28;20387;-77
2021/01/07 07:12:31;;;;;;;22.60;19.17;;;;;;;;;;5011532;28;20375;-77
2021/01/07 07:14:57;;;;;;;20.37;18.10;;;;;;;;;;5012156;28;20408;-78
2021/01/07 07:17:24;;;;;;;19.00;16.88;;;;;;;;;;5010885;28;20718;-76
2021/01/07 07:19:50;;;;;;;21.20;18.20;;;;;;;;;;5010149;28;20411;-79
2021/01/07 07:22:19;;;;;;;19.20;17.20;;;;;;;;;;5011812;28;20367;-77
2021/01/07 07:24:49;;;;;;;19.85;17.65;;;;;;;;;;4992091;28;20367;-77
2021/01/07 07:27:15;;;;;;;19.73;17.60;;;;;;;;;;4991618;28;20377;-77
2021/01/07 07:29:45;;;;;;;20.67;17.75;;;;;;;;;;4990012;28;20910;-78
2021/01/07 07:32:24;;;;;;;18.45;16.40;;;;;;;;;;4990566;28;20388;-77
2021/01/07 07:34:50;;;;;;;19.55;17.25;;;;;;;;;;4992646;28;20718;-77
2021/01/07 07:37:20;;;;;;;21.23;17.90;;;;;;;;;;5011253;28;20399;-77
2021/01/07 07:39:50;;;;;;;19.27;17.27;;;;;;;;;;5010930;28;20884;-77
2021/01/07 07:42:16;;;;;;;19.23;17.17;;;;;;;;;;5011084;28;20405;-78
2021/01/07 07:44:42;;;;;;;20.33;17.10;;;;;;;;;;5010534;28;20395;-76
2021/01/07 07:47:08;;;;;;;19.42;17.20;;;;;;;;;;5003073;28;20370;-75
2021/01/07 07:49:34;;;;;;;21.60;17.08;;;;;;;;;;5011256;28;20394;-75
2021/01/07 07:52:00;;;;;;;21.05;18.13;;;;;;;;;;4993972;28;20870;-78
2021/01/07 07:54:26;;;;;;;20.13;17.93;;;;;;;;;;5006851;28;20422;-76
2021/01/07 07:56:59;;;;;;;19.27;17.17;;;;;;;;;;5010363;28;20455;-77
2021/01/07 07:59:25;;;;;;;21.08;17.98;;;;;;;;;;5008062;28;20433;-77
2021/01/07 08:01:53;;;;;;;21.65;17.90;;;;;;;;;;5010207;28;20802;-78
2021/01/07 08:04:21;;;;;;;18.23;16.33;;;;;;;;;;5010116;28;20367;-76
2021/01/07 08:06:47;;;;;;;17.88;15.85;;;;;;;;;;5010275;28;20370;-76
2021/01/07 08:09:14;;;;;;;18.95;16.77;;;;;;;;;;5009220;28;20402;-77
2021/01/07 08:11:48;;;;;;;18.90;16.88;;;;;;;;;;4993797;28;20915;-77
2021/01/07 08:14:20;;;;;;;19.25;16.95;;;;;;;;;;5010885;28;20355;-79
2021/01/07 08:16:47;;;;;;;19.15;16.80;;;;;;;;;;5010812;28;20695;-77
2021/01/07 08:19:16;;;;;;;19.38;16.85;;;;;;;;;;5010769;28;20441;-76
2021/01/07 08:21:46;;;;;;;19.35;16.95;;;;;;;;;;5012955;28;20367;-76
2021/01/07 08:24:12;;;;;;;19.35;16.65;;;;;;;;;;5014599;28;20356;-76
2021/01/07 08:26:39;;;;;;;19.05;17.05;;;;;;;;;;5014791;28;20367;-77
2021/01/07 08:29:08;;;;;;;19.55;16.38;;;;;;;;;;5014100;28;20379;-78
2021/01/07 08:31:34;;;;;;;19.00;15.98;;;;;;;;;;5012952;28;20711;-78
2021/01/07 08:34:02;;;;;;;17.85;15.95;;;;;;;;;;5014566;28;20430;-79
2021/01/07 08:36:30;;;;;;;18.75;15.80;;;;;;;;;;5014535;28;20726;-78
2021/01/07 08:38:56;;;;;;;19.50;16.27;;;;;;;;;;5014422;28;20908;-79
2021/01/07 08:41:22;;;;;;;17.33;15.43;;;;;;;;;;5014379;28;20799;-79
2021/01/07 08:43:50;;;;;;;17.63;15.35;;;;;;;;;;5012811;28;20372;-78
2021/01/07 08:46:17;;;;;;;18.33;15.40;;;;;;;;;;5014141;28;20370;-77
2021/01/07 08:48:44;;;;;;;16.77;14.77;;;;;;;;;;5014381;28;20873;-77
2021/01/07 08:51:19;;;;;;;17.05;15.25;;;;;;;;;;5013785;28;20399;-77
2021/01/07 08:53:55;;;;;;;16.98;15.15;;;;;;;;;;5008976;28;20873;-76
2021/01/07 08:56:31;;;;;;;15.32;13.73;;;;;;;;;;5013191;28;20830;-78
2021/01/07 08:59:16;;;;;;;15.68;13.98;;;;;;;;;;5013696;28;20483;-80
2021/01/07 09:01:42;;;;;;;16.65;14.85;;;;;;;;;;5013938;28;20482;-80
2021/01/07 09:04:24;;;;;;;16.70;14.63;;;;;;;;;;5013310;28;20370;-76
2021/01/07 09:06:57;;;;;;;15.82;13.75;;;;;;;;;;5013221;28;20430;-75
2021/01/07 09:09:23;;;;;;;15.05;13.07;;;;;;;;;;5012662;28;20426;-77
2021/01/07 09:11:49;;;;;;;15.10;13.50;;;;;;;;;;5008699;28;20466;-78
2021/01/07 09:14:15;;;;;;;15.35;13.75;;;;;;;;;;5012143;28;20462;-79
2021/01/07 09:16:57;;;;;;;14.23;12.73;;;;;;;;;;5011727;28;20874;-76
2021/01/07 09:19:23;;;;;;;14.23;12.73;;;;;;;;;;5013618;28;20375;-79
2021/01/07 09:21:58;;;;;;;14.52;13.00;;;;;;;;;;5013242;28;20371;-82
2021/01/07 09:24:24;;;;;;;13.57;12.07;;;;;;;;;;5013278;28;20426;-76
2021/01/07 09:26:50;;;;;;;14.63;12.52;;;;;;;;;;5012176;28;20380;-76
2021/01/07 09:29:16;;;;;;;14.23;12.63;;;;;;;;;;5011436;28;20410;-76
2021/01/07 09:31:42;;;;;;;14.05;12.35;;;;;;;;;;5013061;28;20380;-76
2021/01/07 09:34:08;;;;;;;13.32;11.60;;;;;;;;;;5012397;28;20369;-75
2021/01/07 09:36:34;;;;;;;13.82;12.32;;;;;;;;;;5013505;28;20367;-78
2021/01/07 09:39:00;;;;;;;12.77;11.52;;;;;;;;;;4995914;28;20391;-79
2021/01/07 09:41:26;;;;;;;13.80;11.40;;;;;;;;;;5011512;28;20865;-80
2021/01/07 09:43:52;;;;;;;13.30;11.45;;;;;;;;;;5005715;28;20367;-76
2021/01/07 09:46:19;;;;;;;13.38;10.63;;;;;;;;;;5011508;28;20413;-78
2021/01/07 09:48:46;;;;;;;13.93;11.50;;;;;;;;;;4995875;28;20365;-77
2021/01/07 09:51:12;;;;;;;14.77;12.02;;;;;;;;;;5012421;28;20461;-77
2021/01/07 09:53:39;;;;;;;14.97;11.60;;;;;;;;;;5011944;28;20461;-77
2021/01/07 09:56:05;;;;;;;12.48;10.38;;;;;;;;;;5013025;28;20901;-79
2021/01/07 09:58:31;;;;;;;11.02;9.93;;;;;;;;;;5011519;28;20395;-75
2021/01/07 10:00:57;;;;;;;11.43;10.05;;;;;;;;;;5006927;28;20389;-80
2021/01/07 10:03:23;;;;;;;11.38;10.00;;;;;;;;;;5002139;28;20914;-81
2021/01/07 10:05:49;;;;;;;9.90;8.90;;;;;;;;;;4995673;28;20379;-78
2021/01/07 10:08:15;;;;;;;10.93;9.18;;;;;;;;;;5013293;28;20603;-78
2021/01/07 10:10:42;;;;;;;10.32;9.23;;;;;;;;;;5012696;28;20949;-77
2021/01/07 10:13:08;;;;;;;10.55;9.45;;;;;;;;;;5013125;28;20375;-76
2021/01/07 10:15:33;;;;;;;10.75;8.75;;;;;;;;;;5011533;28;20878;-75
2021/01/07 10:17:59;;;;;;;10.32;8.98;;;;;;;;;;4998717;28;20407;-75
2021/01/07 10:20:26;;;;;;;9.63;8.63;;;;;;;;;;5012460;28;20383;-76
2021/01/07 10:22:52;;;;;;;9.52;8.50;;;;;;;;;;5005299;28;20449;-81
2021/01/07 10:25:18;;;;;;;10.55;9.43;;;;;;;;;;5012972;28;20864;-77
2021/01/07 10:27:44;;;;;;;10.30;9.20;;;;;;;;;;5012761;28;20387;-78
2021/01/07 10:30:11;;;;;;;10.00;9.00;;;;;;;;;;5012781;28;20399;-75
2021/01/07 10:32:37;;;;;;;10.60;9.50;;;;;;;;;;5011131;28;20379;-77
2021/01/07 10:35:04;;;;;;;9.80;8.80;;;;;;;;;;5013205;28;20382;-78
2021/01/07 10:37:33;;;;;;;10.50;9.40;;;;;;;;;;5011578;28;20446;-79
2021/01/07 10:40:03;;;;;;;10.73;9.63;;;;;;;;;;4994713;28;20379;-78
2021/01/07 10:42:29;;;;;;;9.80;8.80;;;;;;;;;;5010952;28;20458;-80
2021/01/07 10:44:55;;;;;;;9.85;8.85;;;;;;;;;;5012760;28;20402;-76
2021/01/07 10:47:26;;;;;;;9.90;8.88;;;;;;;;;;5012413;28;20881;-76
2021/01/07 10:49:53;;;;;;;10.15;9.15;;;;;;;;;;5001194;28;20412;-82
2021/01/07 10:52:31;;;;;;;10.07;9.07;;;;;;;;;;5006552;28;20395;-81
2021/01/07 10:55:20;;;;;;;10.00;9.00;;;;;;;;;;5011232;28;20379;-76
2021/01/07 10:57:46;;;;;;;10.98;9.80;;;;;;;;;;5011320;28;20719;-76
2021/01/07 11:00:21;;;;;;;10.43;9.32;;;;;;;;;;5009160;28;20427;-75
2021/01/07 11:03:02;;;;;;;11.03;9.83;;;;;;;;;;5003362;28;20417;-77
2021/01/07 11:05:52;;;;;;;11.48;10.27;;;;;;;;;;5009156;28;20387;-78
2021/01/07 11:08:38;;;;;;;11.43;9.50;;;;;;;;;;5003616;28;20381;-81
2021/01/07 11:11:10;;;;;;;10.43;9.33;;;;;;;;;;4991624;28;20401;-76
2021/01/07 11:13:38;;;;;;;11.10;9.90;;;;;;;;;;5008590;28;20896;-76
2021/01/07 11:16:11;;;;;;;12.32;11.00;;;;;;;;;;5012611;28;20834;-80
2021/01/07 11:18:41;;;;;;;11.25;10.05;;;;;;;;;;5012495;28;20363;-75
2021/01/07 11:21:09;;;;;;;11.60;10.40;;;;;;;;;;5012030;28;20470;-76
2021/01/07 11:23:35;;;;;;;11.93;10.63;;;;;;;;;;5009394;28;20398;-77
2021/01/07 11:26:02;;;;;;;11.27;10.13;;;;;;;;;;5005754;28;20394;-81
2021/01/07 11:28:29;;;;;;;11.35;10.00;;;;;;;;;;5009013;28;20861;-81
2021/01/07 11:30:59;;;;;;;10.77;9.70;;;;;;;;;;5010441;28;20398;-81
2021/01/07 11:33:25;;;;;;;11.73;10.52;;;;;;;;;;5011516;28;20386;-79
2021/01/07 11:35:51;;;;;;;11.05;9.95;;;;;;;;;;5009279;28;20429;-78
2021/01/07 11:38:26;;;;;;;13.23;11.32;;;;;;;;;;4997644;28;20385;-76
2021/01/07 11:40:55;;;;;;;11.88;10.60;;;;;;;;;;4994720;28;20383;-81
2021/01/07 11:43:38;;;;;;;12.50;11.30;;;;;;;;;;5009201;28;20375;-79
2021/01/07 11:46:05;;;;;;;12.25;11.05;;;;;;;;;;5010141;28;20780;-78
2021/01/07 11:48:32;;;;;;;11.90;10.70;;;;;;;;;;5011911;28;20371;-79
2021/01/07 11:51:05;;;;;;;12.55;11.25;;;;;;;;;;5010571;28;20878;-81
2021/01/07 11:53:31;;;;;;;13.50;12.05;;;;;;;;;;5012160;28;20379;-80
2021/01/07 11:55:58;;;;;;;12.82;11.52;;;;;;;;;;5013126;28;20450;-81
2021/01/07 11:58:25;;;;;;;13.20;11.82;;;;;;;;;;5015920;28;20379;-77
2021/01/07 12:00:55;;;;;;;13.63;12.23;;;;;;;;;;5014943;28;21101;-76
2021/01/07 12:03:22;;;;;;;13.15;11.82;;;;;;;;;;5016297;28;20367;-76
2021/01/07 12:05:48;;;;;;;13.30;11.90;;;;;;;;;;5015054;28;20379;-76
2021/01/07 12:08:22;;;;;;;12.73;11.48;;;;;;;;;;5016294;28;20874;-75
2021/01/07 12:10:52;;;;;;;13.63;12.00;;;;;;;;;;5016369;28;20445;-77
2021/01/07 12:13:27;;;;;;;13.00;11.73;;;;;;;;;;5014865;28;20383;-75
2021/01/07 12:15:54;;;;;;;13.00;11.70;;;;;;;;;;5001136;28;20449;-81
2021/01/07 12:18:20;;;;;;;12.80;11.38;;;;;;;;;;5016382;28;20407;-78
2021/01/07 12:20:47;;;;;;;12.45;11.25;;;;;;;;;;5016241;28;20447;-78
2021/01/07 12:23:15;;;;;;;11.98;10.70;;;;;;;;;;5016025;28;20462;-80
2021/01/07 12:25:41;;;;;;;12.60;11.40;;;;;;;;;;5014727;28;20438;-78
2021/01/07 12:28:08;;;;;;;12.25;11.05;;;;;;;;;;5013978;28;20407;-81
2021/01/07 12:30:38;;;;;;;10.77;9.70;;;;;;;;;;5014126;28;20801;-78
2021/01/07 12:33:04;;;;;;;9.82;8.93;;;;;;;;;;5014879;28;20470;-78
2021/01/07 12:35:34;;;;;;;11.93;10.73;;;;;;;;;;5014713;28;20458;-80
2021/01/07 12:38:00;;;;;;;10.95;9.85;;;;;;;;;;5014713;28;20379;-79
2021/01/07 12:40:29;;;;;;;11.43;10.30;;;;;;;;;;5015529;28;20715;-77
2021/01/07 12:43:02;;;;;;;10.50;9.47;;;;;;;;;;4996087;28;20383;-77
2021/01/07 12:45:34;;;;;;;10.00;9.00;;;;;;;;;;5004291;28;20386;-77
2021/01/07 12:48:00;;;;;;;10.10;9.10;;;;;;;;;;4998011;28;20379;-82
2021/01/07 12:50:28;;;;;;;9.73;8.75;;;;;;;;;;5015657;28;20420;-80
2021/01/07 12:52:54;;;;;;;9.48;8.57;;;;;;;;;;4998198;28;20441;-77
2021/01/07 12:55:20;;;;;;;9.82;8.82;;;;;;;;;;5015696;28;20462;-79
2021/01/07 12:58:04;;;;;;;10.60;9.50;;;;;;;;;;5015336;28;20367;-76
2021/01/07 13:00:37;;;;;;;11.13;10.00;;;;;;;;;;5013803;28;20379;-77
2021/01/07 13:03:12;;;;;;;10.00;9.02;;;;;;;;;;5015500;28;20857;-78
2021/01/07 13:05:40;;;;;;;9.77;8.88;;;;;;;;;;5015275;28;20371;-77
2021/01/07 13:08:07;;;;;;;10.50;9.50;;;;;;;;;;5015483;28;20423;-77
2021/01/07 13:10:37;;;;;;;9.93;8.93;;;;;;;;;;4997569;28;20387;-81
2021/01/07 13:13:04;;;;;;;11.02;9.90;;;;;;;;;;5015312;28;20359;-78
2021/01/07 13:15:30;;;;;;;11.35;10.25;;;;;;;;;;5015567;28;20371;-77
2021/01/07 13:17:56;;;;;;;10.93;9.85;;;;;;;;;;5015371;28;20864;-77
2021/01/07 13:20:22;;;;;;;11.93;10.73;;;;;;;;;;5015007;28;20390;-76
2021/01/07 13:22:48;;;;;;;11.57;10.38;;;;;;;;;;5015282;28;20822;-82
2021/01/07 13:25:15;;;;;;;12.07;10.87;;;;;;;;;;5013773;28;20387;-82
2021/01/07 13:27:42;;;;;;;11.20;10.10;;;;;;;;;;5014514;28;20418;-79
2021/01/07 13:30:09;;;;;;;11.68;10.57;;;;;;;;;;5014748;28;20407;-79
2021/01/07 13:32:35;;;;;;;10.75;9.75;;;;;;;;;;5014770;28;20429;-79
2021/01/07 13:35:03;;;;;;;11.82;10.63;;;;;;;;;;5013911;28;20375;-78
2021/01/07 13:37:30;;;;;;;11.40;10.27;;;;;;;;;;5014812;28;20359;-80
2021/01/07 13:39:56;;;;;;;11.75;10.55;;;;;;;;;;5014295;28;20457;-81
2021/01/07 13:42:22;;;;;;;11.52;10.32;;;;;;;;;;5014506;28;20438;-76
2021/01/07 13:44:50;;;;;;;11.55;10.45;;;;;;;;;;5012944;28;20376;-81
2021/01/07 13:47:20;;;;;;;11.57;10.38;;;;;;;;;;5008562;28;20369;-82
2021/01/07 13:49:50;;;;;;;10.88;9.82;;;;;;;;;;4994819;28;20395;-80
2021/01/07 13:52:17;;;;;;;11.18;9.95;;;;;;;;;;5000535;28;20372;-78
2021/01/07 13:54:43;;;;;;;10.77;9.77;;;;;;;;;;5008207;28;20377;-76
2021/01/07 13:57:11;;;;;;;11.45;10.35;;;;;;;;;;5012990;28;20415;-77
2021/01/07 13:59:37;;;;;;;10.97;9.77;;;;;;;;;;5006131;28;20967;-77
2021/01/07 14:02:06;;;;;;;11.50;10.32;;;;;;;;;;4994030;28;20357;-78
2021/01/07 14:04:36;;;;;;;10.77;9.68;;;;;;;;;;5000328;28;20728;-81
2021/01/07 14:07:05;;;;;;;11.10;9.90;;;;;;;;;;4996589;28;20379;-79
2021/01/07 14:09:31;;;;;;;10.27;9.27;;;;;;;;;;5009106;28;20455;-77
2021/01/07 14:11:59;;;;;;;9.80;8.90;;;;;;;;;;5001914;28;20381;-77
2021/01/07 14:14:26;;;;;;;10.93;9.82;;;;;;;;;;5005176;28;20361;-77
2021/01/07 14:16:53;;;;;;;10.90;9.88;;;;;;;;;;5007215;28;20370;-77
2021/01/07 14:19:19;;;;;;;10.98;9.85;;;;;;;;;;4998246;28;20814;-77
2021/01/07 14:21:45;;;;;;;10.80;9.70;;;;;;;;;;4994210;28;20401;-78
2021/01/07 14:24:11;;;;;;;11.50;10.40;;;;;;;;;;5001434;28;20838;-77